Time;durP1;ratioP1;P1;durP2;ratioP2;P2;SDS_P1;SDS_P2;PMS_P1;PMS_P2;Temp;Humidity;BMP_temperature;BMP_pressure;BME280_temperature;BME280_humidity;BME280_pressure;Samples;Min_cycle;Max_cycle;Signal;HPM_P1;HPM_P2
2021/04/06 00:00:09;;;;;;;1.95;1.40;;;6.80;61.40;;;;;;5113500;28;20083;-90
2021/04/06 00:02:37;;;;;;;2.60;1.65;;;6.80;61.40;;;;;;5085971;28;20032;-91
2021/04/06 00:05:07;;;;;;;1.92;1.27;;;6.80;61.40;;;;;;5092860;28;20130;-89
2021/04/06 00:07:34;;;;;;;1.98;1.33;;;6.70;61.40;;;;;;5113784;28;20020;-89
2021/04/06 00:10:15;;;;;;;1.63;1.30;;;6.70;61.40;;;;;;5113109;28;20016;-90
2021/04/06 00:12:43;;;;;;;2.88;1.60;;;6.70;61.50;;;;;;5099368;28;20019;-88
2021/04/06 00:15:11;;;;;;;3.25;1.95;;;6.70;61.40;;;;;;5114725;27;20020;-87
2021/04/06 00:17:42;;;;;;;2.15;1.30;;;6.70;61.50;;;;;;5113251;28;20027;-89
2021/04/06 00:20:08;;;;;;;2.80;1.30;;;6.70;61.50;;;;;;5113966;27;20392;-88
2021/04/06 00:22:36;;;;;;;1.48;1.30;;;6.70;61.50;;;;;;5084364;28;20161;-89
2021/04/06 00:25:04;;;;;;;2.78;1.52;;;6.70;61.60;;;;;;5115313;27;20020;-91
2021/04/06 00:27:33;;;;;;;2.85;1.42;;;6.60;61.60;;;;;;5096663;28;20042;-90
2021/04/06 00:30:10;;;;;;;1.85;1.40;;;6.70;61.70;;;;;;5114106;28;20038;-88
2021/04/06 00:32:37;;;;;;;2.45;1.52;;;6.60;61.70;;;;;;5113440;28;20032;-89
2021/04/06 00:35:05;;;;;;;1.38;1.20;;;6.60;61.70;;;;;;5106860;27;20048;-88
2021/04/06 00:37:42;;;;;;;1.38;1.10;;;6.60;61.70;;;;;;5106208;28;20102;-88
2021/04/06 00:40:10;;;;;;;2.15;1.30;;;6.60;61.70;;;;;;5099452;28;20040;-88
2021/04/06 00:42:38;;;;;;;1.40;1.30;;;6.60;61.70;;;;;;5096509;28;20054;-89
2021/04/06 00:45:12;;;;;;;1.67;1.58;;;6.60;61.70;;;;;;5113548;28;20459;-89
2021/04/06 00:47:39;;;;;;;1.98;1.48;;;6.60;61.80;;;;;;5113102;28;20098;-88
2021/04/06 00:50:18;;;;;;;1.67;1.23;;;6.60;61.70;;;;;;5097351;28;20563;-89
2021/04/06 00:52:49;;;;;;;1.52;1.35;;;6.60;61.80;;;;;;5113388;28;20034;-89
2021/04/06 00:55:19;;;;;;;1.38;1.27;;;6.60;61.70;;;;;;5113186;28;20023;-87
2021/04/06 00:57:46;;;;;;;1.75;1.40;;;6.60;61.80;;;;;;5093095;28;20024;-86
2021/04/06 01:00:18;;;;;;;1.88;1.42;;;6.60;61.80;;;;;;5110840;28;20185;-86
2021/04/06 01:03:02;;;;;;;2.22;1.50;;;6.50;61.80;;;;;;5114490;28;20058;-87
2021/04/06 01:05:29;;;;;;;2.08;1.17;;;6.50;61.90;;;;;;5112125;28;20055;-89
2021/04/06 01:07:59;;;;;;;3.28;1.67;;;6.50;61.80;;;;;;5095893;28;20035;-89
2021/04/06 01:10:26;;;;;;;3.00;1.35;;;6.50;61.80;;;;;;5095874;28;20027;-89
2021/04/06 01:12:55;;;;;;;2.00;1.30;;;6.50;61.90;;;;;;5112753;28;20020;-89
2021/04/06 01:15:23;;;;;;;1.98;1.33;;;6.50;61.90;;;;;;5096432;28;20020;-89
2021/04/06 01:17:50;;;;;;;2.78;1.40;;;6.50;61.90;;;;;;5112847;28;20019;-90
2021/04/06 01:20:18;;;;;;;1.52;1.10;;;6.50;61.90;;;;;;5089890;28;20053;-92
2021/04/06 01:22:46;;;;;;;3.03;1.58;;;6.50;61.90;;;;;;5113095;28;20051;-90
2021/04/06 01:25:24;;;;;;;2.55;1.40;;;6.50;62.70;;;;;;5113159;28;20030;-90
2021/04/06 01:28:02;;;;;;;3.88;1.50;;;6.50;62.00;;;;;;5113186;27;20175;-92
2021/04/06 01:30:43;;;;;;;2.47;1.40;;;6.50;62.00;;;;;;5121042;27;20053;-89
2021/04/06 01:33:13;;;;;;;1.70;1.48;;;6.50;61.90;;;;;;5111058;28;20028;-91
2021/04/06 01:35:44;;;;;;;3.53;1.45;;;6.50;61.90;;;;;;5100249;28;20126;-91
2021/04/06 01:38:12;;;;;;;2.97;1.55;;;6.50;62.00;;;;;;5116217;28;20024;-90
2021/04/06 01:40:37;;;;;;;3.45;1.60;;;6.40;61.90;;;;;;5116002;28;20106;-90
2021/04/06 01:43:04;;;;;;;2.72;1.67;;;6.40;61.90;;;;;;5098984;28;20055;-92
2021/04/06 01:45:31;;;;;;;2.00;1.33;;;6.40;62.00;;;;;;5116964;28;20024;-89
2021/04/06 01:47:57;;;;;;;2.08;1.42;;;6.40;62.00;;;;;;5097783;28;20027;-89
2021/04/06 01:50:23;;;;;;;3.05;1.65;;;6.40;62.00;;;;;;5099527;28;20088;-88
2021/04/06 01:52:52;;;;;;;3.13;1.50;;;6.40;62.10;;;;;;5116368;28;20043;-89
2021/04/06 01:55:33;;;;;;;2.25;1.45;;;6.40;62.10;;;;;;5099306;28;20444;-90
2021/04/06 01:58:00;;;;;;;2.60;1.50;;;6.40;62.20;;;;;;5102644;28;20034;-90
2021/04/06 02:03:04;;;;;;;2.05;1.40;;;6.40;62.10;;;;;;5116232;27;20036;-90
2021/04/06 02:05:30;;;;;;;2.65;1.70;;;6.40;62.10;;;;;;5088241;28;20059;-90
2021/04/06 02:08:00;;;;;;;2.40;1.67;;;6.40;62.10;;;;;;5129050;27;20451;-91
2021/04/06 02:10:26;;;;;;;3.47;1.70;;;6.40;62.20;;;;;;5099636;28;20027;-89
2021/04/06 02:12:52;;;;;;;2.85;1.42;;;6.40;62.10;;;;;;5116182;28;20114;-88
2021/04/06 02:15:18;;;;;;;3.75;1.90;;;6.40;62.20;;;;;;5099487;28;20027;-89
2021/04/06 02:17:50;;;;;;;4.38;1.58;;;6.30;62.10;;;;;;5117700;27;20016;-89
2021/04/06 02:20:26;;;;;;;2.10;1.40;;;6.30;62.20;;;;;;5115674;27;20248;-89
2021/04/06 02:23:03;;;;;;;2.47;1.25;;;6.30;62.20;;;;;;5098459;28;20028;-87
2021/04/06 02:25:30;;;;;;;2.72;1.50;;;6.30;62.20;;;;;;5095502;28;20032;-88
2021/04/06 02:27:56;;;;;;;2.70;1.30;;;6.30;62.20;;;;;;5114729;28;20038;-88
2021/04/06 02:30:32;;;;;;;2.35;1.55;;;6.30;62.20;;;;;;5112971;27;20035;-88
2021/04/06 02:33:02;;;;;;;1.50;1.30;;;6.30;62.20;;;;;;5132160;27;20062;-88
2021/04/06 02:35:28;;;;;;;2.63;1.45;;;6.30;62.20;;;;;;5131001;27;20028;-88
2021/04/06 02:37:54;;;;;;;2.42;1.48;;;6.30;62.20;;;;;;5114186;28;20472;-88
2021/04/06 02:40:21;;;;;;;2.40;1.70;;;6.30;62.20;;;;;;5114973;28;20027;-90
2021/04/06 02:42:50;;;;;;;2.60;1.58;;;6.30;62.20;;;;;;5115042;28;20032;-89
2021/04/06 02:45:19;;;;;;;2.85;1.60;;;6.30;62.30;;;;;;5098115;28;20478;-88
2021/04/06 02:47:53;;;;;;;3.30;1.70;;;6.20;62.20;;;;;;5117005;27;20031;-89
2021/04/06 02:50:23;;;;;;;2.47;1.50;;;6.30;62.30;;;;;;5101385;28;20024;-88
2021/04/06 02:52:49;;;;;;;2.25;1.45;;;6.20;62.20;;;;;;5097011;28;20039;-89
2021/04/06 02:55:16;;;;;;;2.55;1.50;;;6.20;62.20;;;;;;5097639;28;20027;-89
2021/04/06 02:57:45;;;;;;;3.42;1.60;;;6.30;62.30;;;;;;5115312;28;20503;-88
2021/04/06 03:00:29;;;;;;;3.70;1.75;;;6.20;62.30;;;;;;5116716;27;20103;-88
2021/04/06 03:02:57;;;;;;;2.72;1.77;;;6.20;62.40;;;;;;5102736;28;20042;-89
2021/04/06 03:05:32;;;;;;;1.92;1.38;;;6.20;62.20;;;;;;5097988;28;20050;-88
2021/04/06 03:07:58;;;;;;;3.80;1.67;;;6.20;62.30;;;;;;5087838;28;20054;-87
2021/04/06 03:10:25;;;;;;;1.67;1.13;;;6.20;62.20;;;;;;5121463;27;20036;-87
2021/04/06 03:12:51;;;;;;;3.90;2.00;;;6.20;62.30;;;;;;5114280;28;20058;-88
2021/04/06 03:15:25;;;;;;;2.65;1.40;;;6.10;62.20;;;;;;5114580;28;20052;-87
2021/04/06 03:17:54;;;;;;;3.78;1.70;;;6.10;62.30;;;;;;5114709;28;20032;-88
2021/04/06 03:20:21;;;;;;;2.70;1.80;;;6.20;62.30;;;;;;5114117;28;20379;-87
2021/04/06 03:22:55;;;;;;;2.45;1.42;;;6.20;62.30;;;;;;5097760;28;20039;-92
2021/04/06 03:25:22;;;;;;;2.05;1.33;;;6.10;62.30;;;;;;5114476;28;20024;-91
2021/04/06 03:27:49;;;;;;;2.75;1.65;;;6.10;62.30;;;;;;5115025;27;20540;-88
2021/04/06 03:30:35;;;;;;;2.95;1.55;;;6.10;62.30;;;;;;5114141;28;20019;-89
2021/04/06 03:33:09;;;;;;;1.77;1.35;;;6.10;62.30;;;;;;5114277;28;20361;-89
2021/04/06 03:35:38;;;;;;;2.13;1.67;;;6.10;62.30;;;;;;5103877;27;20085;-90
2021/04/06 03:38:05;;;;;;;2.17;1.90;;;6.10;62.30;;;;;;5113746;28;20020;-88
2021/04/06 03:40:36;;;;;;;1.73;1.52;;;6.10;62.40;;;;;;5114390;28;20019;-89
2021/04/06 03:43:15;;;;;;;2.22;1.58;;;6.10;62.40;;;;;;5114324;28;20028;-89
2021/04/06 03:46:02;;;;;;;1.85;1.30;;;6.10;63.10;;;;;;5123342;27;20031;-89
2021/04/06 03:48:30;;;;;;;1.50;1.40;;;6.10;62.50;;;;;;5112045;27;20028;-89
2021/04/06 03:50:57;;;;;;;2.25;1.35;;;6.10;62.40;;;;;;5103657;28;20023;-89
2021/04/06 03:53:23;;;;;;;1.30;1.20;;;6.10;62.40;;;;;;5113799;28;20062;-90
2021/04/06 03:56:13;;;;;;;1.50;1.33;;;6.00;62.40;;;;;;5096775;28;20034;-89
2021/04/06 03:58:44;;;;;;;1.80;1.35;;;6.00;62.60;;;;;;5113695;27;20019;-89
2021/04/06 04:01:14;;;;;;;2.97;1.58;;;6.00;62.40;;;;;;5137563;27;20035;-89
2021/04/06 04:03:40;;;;;;;2.13;1.52;;;6.00;62.50;;;;;;5096937;28;20540;-90
2021/04/06 04:06:07;;;;;;;1.77;1.40;;;6.00;62.50;;;;;;5112776;28;20052;-90
2021/04/06 04:08:33;;;;;;;2.55;1.40;;;6.00;62.50;;;;;;5112975;28;20494;-90
2021/04/06 04:10:59;;;;;;;1.83;1.23;;;6.00;62.50;;;;;;5100736;28;20426;-90
2021/04/06 04:13:25;;;;;;;1.95;1.20;;;6.00;62.50;;;;;;5113627;28;20028;-88
2021/04/06 04:15:51;;;;;;;2.40;1.50;;;6.00;62.50;;;;;;5119592;27;20019;-88
2021/04/06 04:18:17;;;;;;;3.05;1.40;;;6.00;62.50;;;;;;5113474;28;20118;-89
2021/04/06 04:20:43;;;;;;;4.00;1.88;;;6.00;62.50;;;;;;5096507;28;20127;-89
2021/04/06 04:23:09;;;;;;;2.20;1.20;;;6.00;62.50;;;;;;5113164;28;20475;-88
2021/04/06 04:25:35;;;;;;;2.72;1.50;;;6.00;62.60;;;;;;5113123;28;20087;-88
2021/04/06 04:28:01;;;;;;;1.77;1.45;;;6.00;62.60;;;;;;5096785;28;20119;-89
2021/04/06 04:30:38;;;;;;;1.63;1.52;;;6.00;62.60;;;;;;5113100;28;20024;-89
2021/04/06 04:33:05;;;;;;;2.53;1.40;;;6.00;62.60;;;;;;5112839;28;20027;-88
2021/04/06 04:35:31;;;;;;;1.73;1.50;;;6.00;62.60;;;;;;5097122;28;20028;-88
2021/04/06 04:37:58;;;;;;;2.55;1.33;;;5.90;62.60;;;;;;5118121;28;20023;-89
2021/04/06 04:40:23;;;;;;;1.42;1.20;;;5.90;62.60;;;;;;5113319;28;20019;-88
2021/04/06 04:42:51;;;;;;;2.00;1.50;;;5.90;62.60;;;;;;5096768;28;20031;-88
2021/04/06 04:45:17;;;;;;;1.25;1.15;;;5.90;62.60;;;;;;5096165;28;20111;-88
2021/04/06 04:47:43;;;;;;;2.70;1.73;;;5.90;62.60;;;;;;5096514;28;20032;-87
2021/04/06 04:50:10;;;;;;;2.67;1.60;;;5.90;62.60;;;;;;5084771;28;20028;-88
2021/04/06 04:52:36;;;;;;;2.15;1.40;;;5.90;62.60;;;;;;5103277;28;20032;-87
2021/04/06 04:55:02;;;;;;;2.10;1.60;;;5.90;62.60;;;;;;5113259;28;20404;-88
2021/04/06 04:57:28;;;;;;;1.90;1.38;;;5.90;62.70;;;;;;5112981;28;20080;-88
2021/04/06 04:59:54;;;;;;;1.75;1.60;;;5.90;62.70;;;;;;5096054;28;20110;-88
2021/04/06 05:02:20;;;;;;;2.40;1.40;;;5.90;62.70;;;;;;5118000;27;21363;-88
2021/04/06 05:04:45;;;;;;;1.42;1.33;;;5.80;62.70;;;;;;5099865;28;20061;-87
2021/04/06 05:07:11;;;;;;;3.15;1.60;;;5.80;62.70;;;;;;5095534;28;20052;-88
2021/04/06 05:09:37;;;;;;;2.72;1.52;;;5.80;62.70;;;;;;5133492;27;20103;-87
2021/04/06 05:12:03;;;;;;;1.25;1.23;;;5.80;62.70;;;;;;5116876;28;20127;-88
2021/04/06 05:14:29;;;;;;;2.60;1.40;;;5.90;62.80;;;;;;5123349;27;20023;-84
2021/04/06 05:16:55;;;;;;;2.63;1.30;;;5.80;62.70;;;;;;5116728;27;20020;-84
2021/04/06 05:19:20;;;;;;;2.78;1.52;;;5.90;62.80;;;;;;5121175;27;20027;-82
2021/04/06 05:21:46;;;;;;;1.45;1.35;;;5.80;62.70;;;;;;5099027;28;20057;-91
2021/04/06 05:24:12;;;;;;;2.83;1.50;;;5.80;62.70;;;;;;5098662;28;20035;-84
2021/04/06 05:26:38;;;;;;;2.35;1.63;;;5.90;62.80;;;;;;5098002;28;20027;-84
2021/04/06 05:29:04;;;;;;;1.75;1.50;;;5.80;62.80;;;;;;5096646;28;20039;-83
2021/04/06 05:31:29;;;;;;;1.42;1.30;;;5.80;62.80;;;;;;5115587;27;20032;-85
2021/04/06 05:33:55;;;;;;;3.20;1.63;;;5.80;62.80;;;;;;5098048;28;20051;-83
2021/04/06 05:36:21;;;;;;;1.50;1.33;;;5.80;62.80;;;;;;5097902;28;20016;-84
2021/04/06 05:38:47;;;;;;;1.52;1.40;;;5.80;62.80;;;;;;5097974;27;20036;-83
2021/04/06 05:41:13;;;;;;;1.95;1.50;;;5.80;62.90;;;;;;5097960;28;20070;-83
2021/04/06 05:43:40;;;;;;;1.42;1.33;;;5.80;62.90;;;;;;5098059;28;20027;-81
2021/04/06 05:46:09;;;;;;;2.75;1.70;;;5.80;62.90;;;;;;5094995;28;20039;-83
2021/04/06 05:48:36;;;;;;;2.40;1.60;;;5.80;62.90;;;;;;5128825;27;20066;-82
2021/04/06 05:51:03;;;;;;;2.85;1.52;;;5.80;62.90;;;;;;5098318;28;20520;-82
2021/04/06 05:53:29;;;;;;;3.50;1.40;;;5.80;62.90;;;;;;5115291;27;20028;-82
2021/04/06 05:55:59;;;;;;;1.95;1.27;;;5.80;62.90;;;;;;5126382;27;20480;-83
2021/04/06 05:58:25;;;;;;;2.13;1.63;;;5.80;63.00;;;;;;5118404;27;20451;-84
2021/04/06 06:00:51;;;;;;;2.60;1.58;;;5.80;62.90;;;;;;5115345;28;20418;-81
2021/04/06 06:03:17;;;;;;;2.30;1.40;;;5.70;62.90;;;;;;5100761;27;20391;-83
2021/04/06 06:05:43;;;;;;;1.40;1.30;;;5.70;62.90;;;;;;5098255;28;20052;-84
2021/04/06 06:08:13;;;;;;;2.47;1.45;;;5.70;62.90;;;;;;5115480;28;20057;-84
2021/04/06 06:10:40;;;;;;;1.25;1.17;;;5.70;62.90;;;;;;5116567;27;20103;-83
2021/04/06 06:13:19;;;;;;;2.40;1.40;;;5.70;63.00;;;;;;5114021;28;20483;-84
2021/04/06 06:16:05;;;;;;;1.65;1.48;;;5.70;63.00;;;;;;5109223;28;20028;-84
2021/04/06 06:18:32;;;;;;;1.40;1.30;;;5.70;63.00;;;;;;5117789;27;20378;-85
2021/04/06 06:20:58;;;;;;;2.00;1.30;;;5.70;62.90;;;;;;5102974;28;20028;-84
2021/04/06 06:23:24;;;;;;;1.65;1.50;;;5.70;63.00;;;;;;5098307;27;20092;-86
2021/04/06 06:26:02;;;;;;;3.35;1.63;;;5.70;63.00;;;;;;5115607;27;20388;-84
2021/04/06 06:28:28;;;;;;;1.73;1.30;;;5.70;63.10;;;;;;5101439;28;20092;-86
2021/04/06 06:30:54;;;;;;;1.77;1.40;;;5.70;63.00;;;;;;5126452;27;20037;-85
2021/04/06 06:33:23;;;;;;;1.90;1.50;;;5.70;63.00;;;;;;5099234;28;20027;-85
2021/04/06 06:35:55;;;;;;;2.47;1.40;;;5.70;63.00;;;;;;5114552;28;20035;-86
2021/04/06 06:38:25;;;;;;;1.75;1.52;;;5.70;63.00;;;;;;5116748;27;20016;-87
2021/04/06 06:41:15;;;;;;;1.30;1.20;;;5.70;63.00;;;;;;5100438;28;20047;-87
2021/04/06 06:43:43;;;;;;;1.65;1.30;;;5.70;63.10;;;;;;5114505;28;20471;-85
2021/04/06 06:46:23;;;;;;;3.90;1.80;;;5.70;63.00;;;;;;5098061;28;20472;-89
2021/04/06 06:49:01;;;;;;;2.25;1.40;;;5.70;63.10;;;;;;5111499;28;20062;-89
2021/04/06 06:51:29;;;;;;;4.22;1.80;;;5.70;63.10;;;;;;5092361;28;20039;-89
2021/04/06 06:53:56;;;;;;;2.28;1.20;;;5.70;63.00;;;;;;5114880;28;20414;-86
2021/04/06 06:56:32;;;;;;;1.50;1.20;;;5.70;63.00;;;;;;5114969;28;20487;-86
2021/04/06 06:58:59;;;;;;;1.80;1.35;;;5.70;63.10;;;;;;5114620;28;20467;-87
2021/04/06 07:01:27;;;;;;;1.85;1.60;;;5.70;63.00;;;;;;5097457;28;20096;-87
2021/04/06 07:04:28;;;;;;;2.47;1.52;;;5.70;63.00;;;;;;5098091;28;20032;-86
2021/04/06 07:06:58;;;;;;;3.75;1.50;;;5.70;63.20;;;;;;5086362;27;20047;-88
2021/04/06 07:09:31;;;;;;;1.45;1.35;;;5.70;63.00;;;;;;5106745;28;20089;-88
2021/04/06 07:12:02;;;;;;;2.75;1.40;;;5.70;63.10;;;;;;5109515;28;20390;-87
2021/04/06 07:14:29;;;;;;;2.08;1.40;;;5.70;63.10;;;;;;5114179;28;20053;-88
2021/04/06 07:17:06;;;;;;;2.55;1.48;;;5.70;63.10;;;;;;5114772;28;20011;-89
2021/04/06 07:19:49;;;;;;;2.13;1.35;;;5.70;63.10;;;;;;5098937;28;20020;-86
2021/04/06 07:22:20;;;;;;;2.10;1.40;;;5.70;63.20;;;;;;5115048;27;20039;-90
2021/04/06 07:24:46;;;;;;;1.70;1.40;;;5.70;63.00;;;;;;5095628;28;20020;-87
2021/04/06 07:27:13;;;;;;;1.70;1.60;;;5.70;63.00;;;;;;5102762;27;20465;-88
2021/04/06 07:29:40;;;;;;;1.75;1.65;;;5.70;63.10;;;;;;5113746;28;20023;-90
2021/04/06 07:32:11;;;;;;;2.05;1.23;;;5.70;63.00;;;;;;5114382;28;20031;-89
2021/04/06 07:34:39;;;;;;;2.10;1.60;;;5.80;63.10;;;;;;5090633;28;20542;-86
2021/04/06 07:37:05;;;;;;;1.88;1.50;;;5.70;63.10;;;;;;5111783;28;20482;-84
2021/04/06 07:39:32;;;;;;;1.50;1.40;;;5.80;63.10;;;;;;5094717;28;20423;-85
2021/04/06 07:41:59;;;;;;;1.50;1.33;;;5.80;63.10;;;;;;5094009;27;20434;-86
2021/04/06 07:44:25;;;;;;;2.03;1.45;;;5.80;63.10;;;;;;5107754;28;20077;-82
2021/04/06 07:46:52;;;;;;;1.60;1.50;;;5.80;63.10;;;;;;5093212;28;20032;-83
2021/04/06 07:49:19;;;;;;;3.00;1.58;;;5.80;63.10;;;;;;5092804;28;20027;-81
2021/04/06 07:51:45;;;;;;;1.58;1.33;;;5.80;63.10;;;;;;5112645;27;20031;-80
2021/04/06 07:54:35;;;;;;;2.40;1.30;;;5.90;63.10;;;;;;5110043;28;20395;-80
2021/04/06 07:57:03;;;;;;;2.38;1.58;;;5.80;63.10;;;;;;5099992;27;20066;-81
2021/04/06 07:59:29;;;;;;;2.03;1.50;;;5.80;63.10;;;;;;5109874;27;20028;-84
2021/04/06 08:01:56;;;;;;;2.30;1.50;;;5.90;63.10;;;;;;5109126;28;20039;-82
2021/04/06 08:04:26;;;;;;;1.67;1.48;;;5.90;63.20;;;;;;5107930;28;20039;-83
2021/04/06 08:06:57;;;;;;;1.58;1.25;;;5.90;63.20;;;;;;5109257;28;20055;-84
2021/04/06 08:09:28;;;;;;;2.03;1.40;;;5.90;63.20;;;;;;5143632;27;20056;-83
2021/04/06 08:12:08;;;;;;;2.38;1.40;;;5.90;63.20;;;;;;5107665;28;20027;-83
2021/04/06 08:14:52;;;;;;;1.45;1.30;;;5.90;63.20;;;;;;5124991;27;20051;-82
2021/04/06 08:17:25;;;;;;;1.27;1.20;;;5.90;63.20;;;;;;5110993;28;20023;-90
2021/04/06 08:20:15;;;;;;;2.75;1.42;;;5.90;63.10;;;;;;5114049;28;20116;-87
2021/04/06 08:22:49;;;;;;;1.40;1.30;;;6.00;63.30;;;;;;5113072;28;20035;-86
2021/04/06 08:25:18;;;;;;;1.40;1.30;;;6.00;63.20;;;;;;5113591;28;20114;-87
2021/04/06 08:27:51;;;;;;;1.88;1.40;;;6.00;63.10;;;;;;5113700;27;20020;-86
2021/04/06 08:30:26;;;;;;;2.40;1.42;;;6.00;63.10;;;;;;5112074;28;20028;-86
2021/04/06 08:32:58;;;;;;;2.47;1.40;;;6.00;63.10;;;;;;5106172;27;20023;-88
2021/04/06 08:35:45;;;;;;;1.60;1.30;;;6.00;63.10;;;;;;5098795;28;20057;-89
2021/04/06 08:38:32;;;;;;;1.42;1.33;;;6.00;63.20;;;;;;5130719;27;20032;-86
2021/04/06 08:41:10;;;;;;;2.45;1.30;;;6.00;63.20;;;;;;5069776;28;20086;-88
2021/04/06 08:43:46;;;;;;;1.52;1.35;;;6.10;63.20;;;;;;5108589;28;20039;-87
2021/04/06 08:46:15;;;;;;;1.33;1.30;;;6.10;63.20;;;;;;5105111;28;20023;-88
2021/04/06 08:48:48;;;;;;;1.33;1.15;;;6.10;63.10;;;;;;5097887;28;20023;-88
2021/04/06 08:51:28;;;;;;;1.40;1.25;;;6.10;63.20;;;;;;5122588;28;20028;-87
2021/04/06 08:54:06;;;;;;;1.20;1.10;;;6.10;63.10;;;;;;5114097;28;20041;-87
2021/04/06 08:56:42;;;;;;;1.75;1.35;;;6.20;63.20;;;;;;5123484;28;20027;-87
2021/04/06 08:59:32;;;;;;;1.90;1.30;;;6.20;63.10;;;;;;5099142;28;20051;-86
2021/04/06 09:01:58;;;;;;;1.70;1.20;;;6.20;63.20;;;;;;5113958;28;20062;-86
2021/04/06 09:04:35;;;;;;;1.08;1.00;;;6.20;63.10;;;;;;5113123;28;20035;-87
2021/04/06 09:07:01;;;;;;;1.50;1.30;;;6.30;63.10;;;;;;5114102;28;20055;-87
2021/04/06 09:09:31;;;;;;;2.00;1.48;;;6.30;63.10;;;;;;5112877;28;20035;-86
2021/04/06 09:11:59;;;;;;;1.58;1.10;;;6.40;63.20;;;;;;5112355;28;20074;-86
2021/04/06 09:14:30;;;;;;;1.40;1.30;;;6.40;63.10;;;;;;5095645;28;20353;-87
2021/04/06 09:16:56;;;;;;;1.70;1.35;;;6.40;63.10;;;;;;5112762;28;20012;-88
2021/04/06 09:19:24;;;;;;;1.60;1.15;;;6.50;63.10;;;;;;5113918;28;20024;-88
2021/04/06 09:21:54;;;;;;;1.33;1.23;;;6.50;63.20;;;;;;5111777;28;20483;-85
2021/04/06 09:24:23;;;;;;;1.40;1.30;;;6.50;63.80;;;;;;5111513;28;20115;-80
2021/04/06 09:26:51;;;;;;;1.20;1.10;;;6.60;63.80;;;;;;5111561;28;20056;-83
2021/04/06 09:29:21;;;;;;;1.40;1.30;;;6.60;63.20;;;;;;5111702;28;20055;-83
2021/04/06 09:31:53;;;;;;;1.20;1.10;;;6.70;63.20;;;;;;5111702;28;20106;-83
2021/04/06 09:34:27;;;;;;;1.75;1.20;;;6.70;63.20;;;;;;5122379;28;20069;-83
2021/04/06 09:36:57;;;;;;;1.48;1.10;;;6.80;63.20;;;;;;5114013;28;20024;-86
2021/04/06 09:39:24;;;;;;;1.40;1.15;;;6.90;63.20;;;;;;5111850;28;20080;-82
2021/04/06 09:41:51;;;;;;;1.00;1.00;;;6.90;63.20;;;;;;5111694;28;20032;-85
2021/04/06 09:44:20;;;;;;;1.40;1.30;;;6.90;63.20;;;;;;5107210;28;20118;-83
2021/04/06 09:46:51;;;;;;;1.30;1.20;;;7.00;63.20;;;;;;5113026;28;20024;-82
2021/04/06 09:49:17;;;;;;;1.08;1.00;;;7.10;63.20;;;;;;5097961;28;20130;-77
2021/04/06 09:51:51;;;;;;;2.53;1.40;;;7.10;63.00;;;;;;5114843;28;20092;-81
2021/04/06 09:54:24;;;;;;;2.47;1.20;;;7.20;63.10;;;;;;5132931;27;20032;-83
2021/04/06 09:56:50;;;;;;;1.20;1.10;;;7.20;63.00;;;;;;5114841;28;20058;-82
2021/04/06 09:59:17;;;;;;;1.02;1.02;;;7.30;63.00;;;;;;5094856;28;20056;-82
2021/04/06 10:01:52;;;;;;;2.00;1.23;;;7.30;63.00;;;;;;5114359;27;20115;-81
2021/04/06 10:04:36;;;;;;;2.30;1.30;;;7.40;63.10;;;;;;5148974;27;20107;-86
2021/04/06 10:07:14;;;;;;;1.45;1.20;;;7.40;63.10;;;;;;5110445;28;20051;-80
2021/04/06 10:09:45;;;;;;;1.00;1.00;;;7.50;63.10;;;;;;5114743;28;20020;-82
2021/04/06 10:12:12;;;;;;;1.20;1.10;;;7.50;63.10;;;;;;5101711;28;20093;-82
2021/04/06 10:14:39;;;;;;;1.63;1.20;;;7.60;63.10;;;;;;5132442;27;20045;-84
2021/04/06 10:17:07;;;;;;;1.30;1.13;;;7.60;63.10;;;;;;5110829;28;20097;-82
2021/04/06 10:19:37;;;;;;;1.88;1.30;;;7.70;63.10;;;;;;5114606;28;20016;-83
2021/04/06 10:22:11;;;;;;;1.60;1.23;;;7.70;63.10;;;;;;5114657;28;20042;-84
2021/04/06 10:24:44;;;;;;;1.25;1.15;;;7.80;63.10;;;;;;5113902;28;20116;-83
2021/04/06 10:27:25;;;;;;;1.30;1.10;;;7.80;63.10;;;;;;5114391;28;20035;-82
2021/04/06 10:29:55;;;;;;;0.82;0.82;;;7.90;63.20;;;;;;5099725;28;20456;-83
2021/04/06 10:32:35;;;;;;;1.20;1.10;;;7.90;63.00;;;;;;5113633;28;20032;-82
2021/04/06 10:35:21;;;;;;;1.20;1.10;;;8.00;63.10;;;;;;5114929;28;20034;-82
2021/04/06 10:37:53;;;;;;;1.30;1.20;;;8.10;63.20;;;;;;5095878;28;20089;-82
2021/04/06 10:40:32;;;;;;;1.10;1.00;;;8.20;63.20;;;;;;5117001;27;20459;-82
2021/04/06 10:43:01;;;;;;;1.23;1.10;;;8.20;63.10;;;;;;5116671;27;20047;-83
2021/04/06 10:45:29;;;;;;;1.40;1.30;;;8.30;63.00;;;;;;5130947;27;20035;-82
2021/04/06 10:48:11;;;;;;;1.38;1.27;;;8.40;63.10;;;;;;5114830;28;20020;-81
2021/04/06 10:50:45;;;;;;;1.17;1.10;;;8.40;63.10;;;;;;5113399;27;20048;-82
2021/04/06 10:53:29;;;;;;;1.00;1.00;;;8.50;63.10;;;;;;5124758;27;20417;-81
2021/04/06 10:56:08;;;;;;;1.10;1.00;;;8.60;63.10;;;;;;5113151;28;20027;-83
2021/04/06 10:58:39;;;;;;;1.98;1.15;;;8.60;63.00;;;;;;5092363;28;20028;-81
2021/04/06 11:01:08;;;;;;;1.17;1.10;;;8.70;63.10;;;;;;5112928;27;20056;-82
2021/04/06 11:03:49;;;;;;;1.50;1.00;;;8.70;63.50;;;;;;5085303;28;20472;-78
2021/04/06 11:06:23;;;;;;;1.67;1.52;;;8.80;63.20;;;;;;5126753;27;20047;-83
2021/04/06 11:08:51;;;;;;;1.30;1.20;;;8.90;63.20;;;;;;5096378;28;20031;-82
2021/04/06 11:11:19;;;;;;;1.77;1.13;;;8.90;63.10;;;;;;5117283;27;20031;-83
2021/04/06 11:13:46;;;;;;;1.10;1.10;;;8.90;63.10;;;;;;5113285;28;20391;-82
2021/04/06 11:16:12;;;;;;;1.73;1.05;;;8.90;63.10;;;;;;5100236;27;20083;-82
2021/04/06 11:18:38;;;;;;;1.67;1.00;;;9.00;63.20;;;;;;5124661;27;20030;-82
2021/04/06 11:21:05;;;;;;;1.30;1.20;;;8.90;63.20;;;;;;5095668;28;20454;-83
2021/04/06 11:23:31;;;;;;;2.38;1.10;;;9.00;63.20;;;;;;5113270;28;20023;-82
2021/04/06 11:25:57;;;;;;;1.20;1.15;;;9.00;63.30;;;;;;5093672;28;20039;-83
2021/04/06 11:28:23;;;;;;;1.70;1.20;;;9.00;63.20;;;;;;5113479;28;20383;-84
2021/04/06 11:30:49;;;;;;;2.60;1.33;;;9.00;63.30;;;;;;5105359;27;20032;-83
2021/04/06 11:33:14;;;;;;;1.20;1.08;;;9.10;63.30;;;;;;5095926;28;20034;-83
2021/04/06 11:35:41;;;;;;;1.08;0.95;;;9.10;63.40;;;;;;5112759;28;20128;-84
2021/04/06 11:38:07;;;;;;;1.92;1.00;;;9.10;63.40;;;;;;5096289;28;20027;-83
2021/04/06 11:40:32;;;;;;;1.23;1.13;;;9.10;63.40;;;;;;5095744;28;20023;-83
2021/04/06 11:42:58;;;;;;;1.50;1.20;;;9.10;63.50;;;;;;5112521;28;20028;-83
2021/04/06 11:45:24;;;;;;;1.63;1.10;;;9.20;63.60;;;;;;5095887;27;20031;-83
2021/04/06 11:47:52;;;;;;;1.20;1.08;;;9.20;63.60;;;;;;5103190;28;20027;-83
2021/04/06 11:50:18;;;;;;;1.20;1.10;;;9.20;63.60;;;;;;5092339;28;20110;-83
2021/04/06 11:52:44;;;;;;;1.40;1.13;;;9.30;63.60;;;;;;5103035;28;20020;-83
2021/04/06 11:55:11;;;;;;;1.20;1.10;;;9.30;63.60;;;;;;5094658;28;20161;-83
2021/04/06 11:57:37;;;;;;;2.50;1.38;;;9.30;63.60;;;;;;5113588;28;20020;-83
2021/04/06 12:00:05;;;;;;;1.10;1.00;;;9.30;63.50;;;;;;5112343;28;20144;-83
2021/04/06 12:02:31;;;;;;;1.65;1.20;;;9.40;63.60;;;;;;5096245;28;20028;-82
2021/04/06 12:04:57;;;;;;;1.52;1.20;;;9.40;63.50;;;;;;5122728;27;20031;-82
2021/04/06 12:07:23;;;;;;;1.48;1.17;;;9.40;63.50;;;;;;5113753;28;20048;-83
2021/04/06 12:09:49;;;;;;;0.90;0.90;;;9.40;63.50;;;;;;5095152;28;20031;-82
2021/04/06 12:12:15;;;;;;;1.38;1.20;;;9.50;63.40;;;;;;5095318;28;20487;-81
2021/04/06 12:14:40;;;;;;;1.23;1.10;;;9.50;63.40;;;;;;5091782;28;20028;-82
2021/04/06 12:17:06;;;;;;;1.42;1.00;;;9.50;63.40;;;;;;5099252;28;20032;-83
2021/04/06 12:19:32;;;;;;;0.80;0.80;;;9.50;63.30;;;;;;5108762;28;20119;-82
2021/04/06 12:21:58;;;;;;;0.98;0.90;;;9.50;63.30;;;;;;5095171;28;20446;-82
2021/04/06 12:24:24;;;;;;;1.25;0.90;;;9.50;63.30;;;;;;5111909;28;20035;-83
2021/04/06 12:26:56;;;;;;;1.00;1.00;;;9.50;63.20;;;;;;5091480;28;20032;-83
2021/04/06 12:29:22;;;;;;;0.90;0.90;;;9.50;63.20;;;;;;5091820;28;20051;-83
2021/04/06 12:31:47;;;;;;;0.90;0.90;;;9.50;63.10;;;;;;5112794;27;20472;-82
2021/04/06 12:34:13;;;;;;;1.77;1.05;;;9.50;63.10;;;;;;5112209;28;20433;-82
2021/04/06 12:36:39;;;;;;;0.93;0.90;;;9.50;63.10;;;;;;5092759;28;20027;-82
2021/04/06 12:39:05;;;;;;;1.08;0.98;;;9.50;63.10;;;;;;5091402;28;20028;-82
2021/04/06 12:41:32;;;;;;;1.00;0.90;;;9.50;63.10;;;;;;5094925;28;20118;-82
2021/04/06 12:43:57;;;;;;;0.82;0.82;;;9.60;63.20;;;;;;5111396;28;20032;-82
2021/04/06 12:46:23;;;;;;;0.95;0.93;;;9.60;63.20;;;;;;5112306;28;20031;-82
2021/04/06 12:48:49;;;;;;;2.63;1.10;;;9.50;63.00;;;;;;5094636;28;20463;-81
2021/04/06 12:51:15;;;;;;;1.13;1.00;;;9.60;63.00;;;;;;5091357;28;20036;-81
2021/04/06 12:53:40;;;;;;;1.10;1.00;;;9.60;63.00;;;;;;5094351;28;20035;-81
2021/04/06 12:56:06;;;;;;;1.83;1.25;;;9.60;63.10;;;;;;5093900;28;20039;-81
2021/04/06 12:58:32;;;;;;;1.38;1.00;;;9.60;63.00;;;;;;5094473;28;20422;-81
2021/04/06 13:00:58;;;;;;;1.10;1.00;;;9.60;63.00;;;;;;5101495;28;20070;-81
2021/04/06 13:03:25;;;;;;;1.65;1.08;;;9.70;63.00;;;;;;5145878;27;20028;-81
2021/04/06 13:05:50;;;;;;;0.88;0.88;;;9.70;62.90;;;;;;5093961;28;20044;-80
2021/04/06 13:08:16;;;;;;;1.20;1.10;;;9.70;62.90;;;;;;5111535;28;20038;-80
2021/04/06 13:10:43;;;;;;;1.02;1.00;;;9.70;62.90;;;;;;5091657;28;20073;-80
2021/04/06 13:13:10;;;;;;;1.88;1.10;;;9.70;62.80;;;;;;5116688;28;20050;-80